Time;durP1;ratioP1;P1;durP2;ratioP2;P2;SDS_P1;SDS_P2;PMS_P1;PMS_P2;Temp;Humidity;BMP_temperature;BMP_pressure;BME280_temperature;BME280_humidity;BME280_pressure;Samples;Min_cycle;Max_cycle;Signal;HPM_P1;HPM_P2
2023/12/01 00:00:58;;;;;;;10.70;5.45;;;-3.50;99.90;;;;;;5113422;28;20023;-80
2023/12/01 00:03:24;;;;;;;11.75;5.97;;;-3.50;99.80;;;;;;5113758;28;20384;-81
2023/12/01 00:05:50;;;;;;;7.18;5.47;;;-3.50;99.80;;;;;;5109249;28;20027;-81
2023/12/01 00:08:16;;;;;;;11.18;7.95;;;-3.40;99.90;;;;;;5095080;28;20476;-80
2023/12/01 00:10:42;;;;;;;9.45;6.65;;;-3.40;99.90;;;;;;5111458;28;20094;-79
2023/12/01 00:13:08;;;;;;;8.55;5.53;;;-3.50;99.90;;;;;;5113138;28;20085;-78
2023/12/01 00:15:34;;;;;;;9.70;5.80;;;-3.50;99.50;;;;;;5113327;28;20020;-79
2023/12/01 00:18:00;;;;;;;8.20;4.82;;;-3.50;99.60;;;;;;5095878;28;20020;-80
2023/12/01 00:20:25;;;;;;;9.10;5.93;;;-3.50;99.60;;;;;;5113969;28;20035;-78
2023/12/01 00:22:52;;;;;;;10.68;5.78;;;-3.50;99.60;;;;;;5105953;28;20027;-79
2023/12/01 00:25:17;;;;;;;8.68;5.30;;;-3.50;99.70;;;;;;5109722;28;20023;-78
2023/12/01 00:27:43;;;;;;;11.05;5.43;;;-3.50;99.60;;;;;;5094681;28;20496;-80
2023/12/01 00:30:09;;;;;;;9.98;6.22;;;-3.50;99.50;;;;;;5112787;28;20019;-81
2023/12/01 00:32:38;;;;;;;12.05;6.57;;;-3.60;99.50;;;;;;5113046;28;20100;-79
2023/12/01 00:35:04;;;;;;;9.93;5.60;;;-3.60;99.60;;;;;;5113079;28;20020;-79
2023/12/01 00:37:33;;;;;;;12.55;6.38;;;-3.50;99.70;;;;;;5086412;28;20380;-80
2023/12/01 00:39:59;;;;;;;8.93;6.10;;;-3.50;99.50;;;;;;5113587;28;20031;-80
2023/12/01 00:42:25;;;;;;;9.15;6.40;;;-3.50;99.40;;;;;;5101809;28;20035;-79
2023/12/01 00:44:52;;;;;;;11.57;4.88;;;-3.60;99.20;;;;;;5112219;28;20051;-80
2023/12/01 00:47:17;;;;;;;9.05;5.45;;;-3.50;99.60;;;;;;5107462;28;20477;-80
2023/12/01 00:49:43;;;;;;;10.82;5.93;;;-3.60;99.20;;;;;;5113214;28;20032;-80
2023/12/01 00:52:09;;;;;;;7.95;5.18;;;-3.60;99.20;;;;;;5105713;28;20030;-79
2023/12/01 00:54:35;;;;;;;10.25;6.25;;;-3.60;99.30;;;;;;5122530;28;20012;-79
2023/12/01 00:57:01;;;;;;;11.15;6.55;;;-3.60;99.10;;;;;;5101558;28;20024;-81
2023/12/01 00:59:26;;;;;;;7.43;5.05;;;-3.70;99.00;;;;;;5112396;28;20429;-81
2023/12/01 01:01:52;;;;;;;11.43;6.15;;;-3.70;99.00;;;;;;5113345;28;20095;-79
2023/12/01 01:04:18;;;;;;;12.30;6.90;;;-3.70;99.20;;;;;;5118462;28;20024;-80
2023/12/01 01:06:44;;;;;;;9.77;6.10;;;-3.70;98.80;;;;;;5112673;28;20012;-80
2023/12/01 01:09:10;;;;;;;11.73;6.32;;;-3.70;99.00;;;;;;5094193;28;20032;-80
2023/12/01 01:11:36;;;;;;;11.90;7.95;;;-3.70;99.20;;;;;;5112150;28;20106;-81
2023/12/01 01:14:02;;;;;;;12.70;6.82;;;-3.70;99.50;;;;;;5112407;28;20099;-80
2023/12/01 01:16:27;;;;;;;11.02;6.15;;;-3.60;99.30;;;;;;5108044;28;20429;-81
2023/12/01 01:18:53;;;;;;;16.02;7.35;;;-3.70;99.20;;;;;;5112718;28;20023;-80
2023/12/01 01:21:19;;;;;;;12.57;8.05;;;-3.60;99.30;;;;;;5112604;28;20046;-80
2023/12/01 01:23:45;;;;;;;10.38;5.90;;;-3.60;99.40;;;;;;5111576;28;20011;-80
2023/12/01 01:26:14;;;;;;;14.07;8.15;;;-3.60;99.40;;;;;;5094337;28;20034;-79
2023/12/01 01:28:40;;;;;;;13.95;8.35;;;-3.60;99.60;;;;;;5112763;28;20086;-81
2023/12/01 01:31:06;;;;;;;10.88;6.35;;;-3.60;99.60;;;;;;5129073;28;20027;-81
2023/12/01 01:33:32;;;;;;;10.15;6.28;;;-3.50;99.80;;;;;;5117605;28;20023;-82
2023/12/01 01:35:58;;;;;;;12.98;6.82;;;-3.50;99.80;;;;;;5086485;28;20019;-79
2023/12/01 01:38:23;;;;;;;15.85;7.45;;;-3.60;99.70;;;;;;5121519;28;20019;-81
2023/12/01 01:40:49;;;;;;;13.05;7.43;;;-3.50;99.90;;;;;;5111643;28;20031;-80
2023/12/01 01:43:24;;;;;;;14.30;7.50;;;-3.50;99.90;;;;;;5103884;28;20518;-81
2023/12/01 01:46:05;;;;;;;15.23;6.47;;;-3.50;99.90;;;;;;5111757;28;20027;-81
2023/12/01 01:48:32;;;;;;;14.77;7.90;;;-3.50;99.80;;;;;;5084777;28;20039;-81
2023/12/01 01:50:59;;;;;;;9.30;5.32;;;-3.50;99.90;;;;;;5093089;28;20023;-79
2023/12/01 01:53:25;;;;;;;13.35;7.35;;;-3.50;99.90;;;;;;5111917;28;20050;-81
2023/12/01 01:55:51;;;;;;;12.13;7.80;;;-3.50;99.90;;;;;;5120869;28;20024;-79
2023/12/01 01:58:17;;;;;;;11.57;7.72;;;-3.50;99.90;;;;;;5111954;28;20020;-80
2023/12/01 02:00:49;;;;;;;14.77;9.60;;;-3.50;99.90;;;;;;5097308;28;20101;-81
2023/12/01 02:03:20;;;;;;;16.38;9.23;;;-3.50;99.90;;;;;;5111804;28;20046;-81
2023/12/01 02:05:49;;;;;;;13.90;7.72;;;-3.50;99.90;;;;;;5110756;28;20022;-80
2023/12/01 02:08:26;;;;;;;13.93;8.52;;;-3.50;99.90;;;;;;5125502;28;20027;-80
2023/12/01 02:10:53;;;;;;;14.45;9.05;;;-3.50;99.90;;;;;;5110856;28;20076;-81
2023/12/01 02:13:20;;;;;;;;;;;-3.40;99.90;;;;;;5106510;28;20072;-80
2023/12/01 02:15:47;;;;;;;13.15;7.65;;;-3.40;99.90;;;;;;5113206;28;19915;-79
2023/12/01 02:18:19;;;;;;;;;;;-3.40;99.80;;;;;;5112754;28;20019;-81
2023/12/01 02:20:45;;;;;;;15.30;8.63;;;-3.30;99.90;;;;;;5115081;28;19912;-78
2023/12/01 02:23:11;;;;;;;13.70;8.00;;;-3.30;99.80;;;;;;5115542;28;20370;-79
2023/12/01 02:25:36;;;;;;;15.18;7.35;;;-3.30;99.90;;;;;;5095890;28;20083;-79
2023/12/01 02:28:02;;;;;;;11.00;6.00;;;-3.20;99.80;;;;;;5115769;28;20012;-80
2023/12/01 02:30:28;;;;;;;13.68;8.18;;;-3.30;99.70;;;;;;5096598;28;20434;-80
2023/12/01 02:32:54;;;;;;;14.80;8.48;;;-3.30;99.70;;;;;;5114830;28;20054;-79
2023/12/01 02:35:20;;;;;;;14.15;9.10;;;-3.40;99.70;;;;;;5114728;28;20365;-79
2023/12/01 02:37:46;;;;;;;13.40;8.25;;;-3.30;99.80;;;;;;5090072;28;20118;-81
2023/12/01 02:40:16;;;;;;;17.52;8.77;;;-3.30;99.80;;;;;;5106042;28;20499;-82
2023/12/01 02:42:46;;;;;;;14.57;8.77;;;-3.20;99.90;;;;;;5114649;28;20372;-81
2023/12/01 02:45:12;;;;;;;10.75;6.93;;;-3.30;99.70;;;;;;5107045;28;20040;-82
2023/12/01 02:47:38;;;;;;;16.30;8.77;;;-3.30;99.40;;;;;;5116646;28;20024;-81
2023/12/01 02:50:04;;;;;;;13.70;8.10;;;-3.40;99.30;;;;;;5125937;28;20490;-81
2023/12/01 02:52:30;;;;;;;14.98;8.32;;;-3.30;99.40;;;;;;5113811;28;20051;-81
2023/12/01 02:54:56;;;;;;;16.63;8.00;;;-3.30;99.40;;;;;;5111641;28;20431;-81
2023/12/01 02:57:22;;;;;;;13.18;8.05;;;-3.30;99.30;;;;;;5113342;28;20024;-81
2023/12/01 02:59:48;;;;;;;12.38;7.03;;;-3.30;99.30;;;;;;5114290;28;20084;-80
2023/12/01 03:02:15;;;;;;;14.85;8.55;;;-3.30;99.30;;;;;;5096086;28;20055;-80
2023/12/01 03:04:41;;;;;;;;;;;-3.30;99.20;;;;;;5114541;28;20080;-79
2023/12/01 03:07:07;;;;;;;10.75;6.22;;;-3.30;99.50;;;;;;5124551;27;19907;-78
2023/12/01 03:09:33;;;;;;;12.98;7.95;;;-3.30;99.20;;;;;;5102296;28;20031;-79
2023/12/01 03:11:58;;;;;;;18.20;8.27;;;-3.30;99.10;;;;;;5113226;27;20031;-80
2023/12/01 03:14:24;;;;;;;14.05;9.25;;;-3.30;99.00;;;;;;5107452;27;20465;-81
2023/12/01 03:16:50;;;;;;;14.15;8.20;;;-3.30;99.00;;;;;;5096422;28;20023;-80
2023/12/01 03:19:16;;;;;;;14.90;9.02;;;-3.30;98.90;;;;;;5109387;28;20108;-81
2023/12/01 03:21:42;;;;;;;16.23;8.73;;;-3.20;99.00;;;;;;5114155;28;20012;-80
2023/12/01 03:24:09;;;;;;;15.60;9.23;;;-3.20;98.80;;;;;;5114025;28;20047;-81
2023/12/01 03:26:37;;;;;;;17.63;9.15;;;-3.20;98.80;;;;;;5113853;28;20018;-80
2023/12/01 03:29:03;;;;;;;16.42;8.27;;;-3.20;98.80;;;;;;5095810;28;20110;-81
2023/12/01 03:31:29;;;;;;;15.70;9.27;;;-3.10;98.80;;;;;;5115205;28;20071;-81
2023/12/01 03:33:55;;;;;;;17.65;8.38;;;-3.20;98.90;;;;;;5112288;28;20016;-81
2023/12/01 03:36:21;;;;;;;13.68;7.78;;;-3.20;98.40;;;;;;5107841;28;20111;-81
2023/12/01 03:38:48;;;;;;;16.08;8.85;;;-3.30;98.40;;;;;;5096565;28;20024;-80
2023/12/01 03:41:15;;;;;;;16.70;10.00;;;-3.30;98.60;;;;;;5106398;28;20106;-80
2023/12/01 03:43:41;;;;;;;13.98;8.13;;;-3.20;98.70;;;;;;5118173;27;20271;-79
2023/12/01 03:46:07;;;;;;;14.60;9.43;;;-3.20;98.50;;;;;;5108031;28;20035;-81
2023/12/01 03:48:33;;;;;;;13.90;7.97;;;-3.20;98.60;;;;;;5091939;28;20499;-81
2023/12/01 03:51:00;;;;;;;16.75;9.57;;;-3.10;98.70;;;;;;5093248;28;20494;-80
2023/12/01 03:53:26;;;;;;;17.83;8.63;;;-3.20;98.50;;;;;;5108420;28;20027;-81
2023/12/01 03:55:53;;;;;;;17.10;9.27;;;-3.30;98.60;;;;;;5120219;28;20051;-80
2023/12/01 03:58:18;;;;;;;15.20;8.98;;;-3.20;98.70;;;;;;5126268;27;20034;-81
2023/12/01 04:00:44;;;;;;;17.20;9.43;;;-3.20;98.80;;;;;;5099387;28;20040;-80
2023/12/01 04:03:11;;;;;;;15.27;8.55;;;-3.20;98.80;;;;;;5113847;28;20069;-79
2023/12/01 04:05:37;;;;;;;17.40;11.20;;;-3.20;98.90;;;;;;5096148;28;20118;-81
2023/12/01 04:08:03;;;;;;;23.02;10.45;;;-3.20;98.80;;;;;;5120788;28;20331;-79
2023/12/01 04:10:29;;;;;;;18.10;9.23;;;-3.10;99.00;;;;;;5118194;28;20066;-81
2023/12/01 04:12:55;;;;;;;19.02;10.18;;;-3.10;99.00;;;;;;5110206;28;20014;-80
2023/12/01 04:15:24;;;;;;;20.13;12.18;;;-3.10;98.90;;;;;;5095031;28;20038;-81
2023/12/01 04:17:50;;;;;;;18.15;11.20;;;-3.10;98.90;;;;;;5112768;28;20016;-82
2023/12/01 04:20:21;;;;;;;20.10;10.27;;;-3.10;99.00;;;;;;5112922;28;20464;-80
2023/12/01 04:22:55;;;;;;;19.60;11.23;;;-3.10;99.00;;;;;;5094475;28;20026;-80
2023/12/01 04:25:21;;;;;;;18.60;9.25;;;-3.10;99.10;;;;;;5094466;28;20181;-79
2023/12/01 04:27:48;;;;;;;17.92;10.73;;;-3.00;99.00;;;;;;5107638;28;20008;-81
2023/12/01 04:30:15;;;;;;;23.35;12.00;;;-3.10;99.00;;;;;;5112819;28;20022;-80
2023/12/01 04:32:47;;;;;;;19.50;9.52;;;-3.00;99.10;;;;;;5095227;28;20023;-79
2023/12/01 04:35:13;;;;;;;19.08;10.95;;;-3.00;99.00;;;;;;5123788;27;20063;-78
2023/12/01 04:37:42;;;;;;;17.63;10.00;;;-3.00;99.00;;;;;;5094228;28;20491;-80
2023/12/01 04:40:14;;;;;;;21.95;11.35;;;-3.00;99.00;;;;;;5094178;28;20032;-79
2023/12/01 04:42:45;;;;;;;21.73;12.68;;;-3.00;99.00;;;;;;5093879;28;20042;-79
2023/12/01 04:45:12;;;;;;;19.13;10.65;;;-3.00;99.10;;;;;;5112267;28;20116;-81
2023/12/01 04:47:42;;;;;;;19.98;11.07;;;-3.00;99.10;;;;;;5113006;28;20033;-82
2023/12/01 04:50:13;;;;;;;19.35;8.98;;;-2.90;99.10;;;;;;5106743;28;20043;-81
2023/12/01 04:52:43;;;;;;;19.83;13.13;;;-2.90;99.00;;;;;;5112553;28;20072;-79
2023/12/01 04:55:12;;;;;;;20.33;11.55;;;-3.00;98.70;;;;;;5112323;28;20028;-81
2023/12/01 04:57:38;;;;;;;16.58;11.35;;;-3.00;98.90;;;;;;5100220;28;20077;-81
2023/12/01 05:00:26;;;;;;;18.90;11.30;;;-3.00;99.00;;;;;;5111214;28;20477;-81
2023/12/01 05:03:12;;;;;;;22.45;11.27;;;-2.90;99.10;;;;;;5111837;28;20438;-81
2023/12/01 05:05:40;;;;;;;19.38;10.35;;;-2.90;99.00;;;;;;5115287;28;20020;-80
2023/12/01 05:08:08;;;;;;;22.58;10.38;;;-2.90;98.70;;;;;;5088692;28;20091;-80
2023/12/01 05:10:36;;;;;;;19.35;10.60;;;-3.00;98.70;;;;;;5097426;28;20481;-81
2023/12/01 05:13:02;;;;;;;;;;;-3.00;98.80;;;;;;5114990;28;20020;-81
2023/12/01 05:15:30;;;;;;;22.10;11.90;;;-3.00;98.90;;;;;;5112481;28;19911;-80
2023/12/01 05:18:01;;;;;;;15.95;11.10;;;-3.00;99.30;;;;;;5101359;28;20077;-81
2023/12/01 05:20:28;;;;;;;23.55;12.00;;;-3.00;99.10;;;;;;5093515;28;20040;-80
2023/12/01 05:22:59;;;;;;;22.35;11.40;;;-2.90;99.20;;;;;;5093994;28;20337;-81
2023/12/01 05:25:25;;;;;;;17.10;9.35;;;-2.80;99.20;;;;;;5112203;28;20096;-79
2023/12/01 05:27:53;;;;;;;17.88;10.38;;;-2.80;99.00;;;;;;5113529;28;20015;-79
2023/12/01 05:30:24;;;;;;;17.23;10.73;;;-2.90;98.80;;;;;;5086338;28;20047;-81
2023/12/01 05:32:52;;;;;;;22.50;11.52;;;-2.90;99.10;;;;;;5112401;28;20369;-80
2023/12/01 05:35:18;;;;;;;;;;;-2.90;99.10;;;;;;5112164;28;20016;-80
2023/12/01 05:37:48;;;;;;;18.58;11.38;;;-2.90;99.20;;;;;;5104740;28;20341;-81
2023/12/01 05:40:22;;;;;;;23.05;10.57;;;-2.80;99.10;;;;;;5112614;28;20039;-80
2023/12/01 05:42:49;;;;;;;20.92;10.35;;;-2.90;98.90;;;;;;5111763;28;20055;-81
2023/12/01 05:45:16;;;;;;;;;;;-2.90;99.00;;;;;;5111846;28;20081;-81
2023/12/01 05:47:44;;;;;;;16.10;10.00;;;-2.90;99.00;;;;;;5111814;28;19950;-80
2023/12/01 05:50:12;;;;;;;13.35;5.32;;;-3.00;98.50;;;;;;5113659;28;20035;-80
2023/12/01 05:52:39;;;;;;;13.43;7.50;;;-3.10;98.50;;;;;;5096804;28;20039;-81
2023/12/01 05:55:10;;;;;;;;;;;-3.20;99.00;;;;;;5096655;28;20028;-81
2023/12/01 05:57:36;;;;;;;18.45;9.73;;;-3.10;99.00;;;;;;5113439;28;19911;-80
2023/12/01 06:00:03;;;;;;;16.63;11.00;;;-3.10;99.00;;;;;;5115344;28;20055;-81
2023/12/01 06:02:29;;;;;;;15.77;10.85;;;-3.10;99.10;;;;;;5097002;28;20020;-79
2023/12/01 06:04:57;;;;;;;23.10;11.60;;;-3.10;99.10;;;;;;5115608;28;20446;-82
2023/12/01 06:07:23;;;;;;;16.77;9.00;;;-3.00;99.30;;;;;;5113727;28;20099;-81
2023/12/01 06:09:49;;;;;;;20.00;9.77;;;-3.00;99.10;;;;;;5114704;28;20030;-82
2023/12/01 06:12:15;;;;;;;18.10;9.65;;;-3.00;99.10;;;;;;5115246;28;20020;-81
2023/12/01 06:14:41;;;;;;;18.67;10.98;;;-3.00;99.20;;;;;;5115333;28;20035;-79
2023/12/01 06:17:07;;;;;;;23.52;11.00;;;-3.00;99.00;;;;;;5097969;28;20160;-80
2023/12/01 06:19:33;;;;;;;21.45;10.88;;;-3.00;99.00;;;;;;5114768;28;20035;-79
2023/12/01 06:21:59;;;;;;;20.50;9.88;;;-3.00;99.10;;;;;;5098763;28;20031;-81
2023/12/01 06:24:26;;;;;;;18.23;11.13;;;-3.00;99.10;;;;;;5115023;28;20359;-82
2023/12/01 06:26:52;;;;;;;17.20;9.40;;;-2.90;99.20;;;;;;5115413;28;20018;-79
2023/12/01 06:29:18;;;;;;;16.73;9.35;;;-2.90;99.20;;;;;;5109774;28;20384;-80
2023/12/01 06:31:44;;;;;;;21.40;11.90;;;-2.90;99.20;;;;;;5115853;28;20020;-79
2023/12/01 06:34:10;;;;;;;16.15;8.48;;;-2.90;98.80;;;;;;5116250;28;20053;-80
2023/12/01 06:36:36;;;;;;;15.35;8.10;;;-2.90;99.00;;;;;;5096621;28;20030;-80
2023/12/01 06:39:10;;;;;;;21.52;10.57;;;-2.90;98.90;;;;;;5112653;28;20095;-79
2023/12/01 06:41:37;;;;;;;15.05;9.45;;;-2.90;99.00;;;;;;5109899;28;20031;-81
2023/12/01 06:44:04;;;;;;;;;;;-2.80;98.90;;;;;;5097333;28;20508;-80
2023/12/01 06:46:30;;;;;;;14.60;8.15;;;-2.90;98.70;;;;;;5116774;28;20368;-80
2023/12/01 06:48:55;;;;;;;15.80;8.55;;;-3.00;98.70;;;;;;5115502;28;20034;-80
2023/12/01 06:51:21;;;;;;;14.07;8.88;;;-3.00;98.80;;;;;;5114904;28;20095;-80
2023/12/01 06:53:47;;;;;;;15.88;10.07;;;-3.00;99.00;;;;;;5114264;28;20028;-82
2023/12/01 06:56:13;;;;;;;21.95;12.18;;;-3.00;99.00;;;;;;5094101;28;20472;-81
2023/12/01 06:58:39;;;;;;;14.65;8.10;;;-3.00;99.00;;;;;;5110066;28;20080;-80
2023/12/01 07:01:05;;;;;;;24.63;9.95;;;-2.90;99.00;;;;;;5118111;28;20062;-82
2023/12/01 07:03:31;;;;;;;25.15;9.80;;;-2.90;99.00;;;;;;5118100;27;20034;-78
2023/12/01 07:05:57;;;;;;;17.17;9.27;;;-2.90;99.10;;;;;;5116908;27;20012;-79
2023/12/01 07:08:23;;;;;;;19.35;11.77;;;-2.80;99.10;;;;;;5094593;28;20036;-81
2023/12/01 07:10:49;;;;;;;13.98;8.02;;;-2.80;99.00;;;;;;5092110;28;20024;-79
2023/12/01 07:13:16;;;;;;;17.35;9.50;;;-2.80;98.80;;;;;;5114149;28;20077;-80
2023/12/01 07:15:42;;;;;;;18.50;9.70;;;-2.90;98.90;;;;;;5106309;28;20016;-80
2023/12/01 07:18:09;;;;;;;11.93;6.90;;;-2.90;98.90;;;;;;5112264;28;20035;-80
2023/12/01 07:20:35;;;;;;;15.40;9.20;;;-2.90;98.80;;;;;;5104169;28;20032;-79
2023/12/01 07:23:02;;;;;;;12.80;7.47;;;-2.80;98.90;;;;;;5114047;28;20051;-81
2023/12/01 07:25:28;;;;;;;16.45;7.90;;;-2.90;98.80;;;;;;5114969;28;20054;-80
2023/12/01 07:27:58;;;;;;;17.27;9.70;;;-2.90;98.50;;;;;;5096320;28;20486;-80
2023/12/01 07:30:27;;;;;;;13.90;9.80;;;-3.00;98.80;;;;;;5113360;28;20769;-81
2023/12/01 07:32:53;;;;;;;18.17;10.75;;;-2.80;99.00;;;;;;5112328;28;20016;-80
2023/12/01 07:35:19;;;;;;;17.70;10.18;;;-2.70;99.10;;;;;;5113756;28;20020;-83
2023/12/01 07:37:51;;;;;;;16.80;10.32;;;-2.60;99.10;;;;;;5113835;28;20416;-80
2023/12/01 07:40:21;;;;;;;20.02;10.45;;;-2.60;98.90;;;;;;5108474;28;20043;-81
2023/12/01 07:42:48;;;;;;;16.67;10.80;;;-2.50;98.90;;;;;;5112933;28;20027;-80
2023/12/01 07:45:17;;;;;;;19.48;10.48;;;-2.60;98.70;;;;;;5113044;28;20113;-80
2023/12/01 07:47:47;;;;;;;12.98;6.45;;;-2.50;98.80;;;;;;5113536;28;20030;-80
2023/12/01 07:50:17;;;;;;;17.60;9.88;;;-2.60;98.40;;;;;;5113358;28;20023;-81
2023/12/01 07:52:47;;;;;;;11.88;7.53;;;-2.70;98.50;;;;;;5114018;28;20019;-83
2023/12/01 07:55:13;;;;;;;18.90;9.38;;;-2.70;98.60;;;;;;5084084;28;20389;-83
2023/12/01 07:57:42;;;;;;;28.48;9.43;;;-2.70;98.80;;;;;;5092889;28;20110;-84
2023/12/01 08:00:18;;;;;;;13.95;7.18;;;-2.70;98.80;;;;;;5114068;28;20067;-82
2023/12/01 08:02:51;;;;;;;20.90;8.82;;;-2.80;98.70;;;;;;5100329;28;20544;-82
2023/12/01 08:05:18;;;;;;;20.75;10.20;;;-2.70;98.90;;;;;;5124258;28;20423;-81
2023/12/01 08:07:46;;;;;;;15.98;10.25;;;-2.80;99.00;;;;;;5100709;28;20016;-83
2023/12/01 08:10:14;;;;;;;14.13;9.10;;;-2.70;99.10;;;;;;5104861;28;20083;-80
2023/12/01 08:12:48;;;;;;;16.23;8.27;;;-2.70;99.20;;;;;;5096105;28;20407;-80
2023/12/01 08:15:14;;;;;;;12.38;8.68;;;-2.60;99.20;;;;;;5117688;27;20077;-82
2023/12/01 08:17:42;;;;;;;16.67;9.55;;;-2.70;99.10;;;;;;5113560;28;20018;-85
2023/12/01 08:20:11;;;;;;;15.23;9.77;;;-2.70;99.30;;;;;;5094125;28;20042;-83
2023/12/01 08:22:37;;;;;;;18.13;10.57;;;-2.70;99.80;;;;;;5110776;28;20069;-83
2023/12/01 08:25:08;;;;;;;21.42;10.70;;;-2.70;99.60;;;;;;5113203;28;20020;-84
2023/12/01 08:27:34;;;;;;;17.65;10.15;;;-2.60;99.60;;;;;;5113510;28;20097;-82
2023/12/01 08:29:59;;;;;;;20.58;11.43;;;-2.60;99.40;;;;;;5118516;28;20091;-86
2023/12/01 08:32:25;;;;;;;21.30;11.85;;;-2.60;99.60;;;;;;5124104;28;20027;-84
2023/12/01 08:34:56;;;;;;;14.15;8.50;;;-2.60;99.80;;;;;;5094753;28;20138;-85
2023/12/01 08:37:22;;;;;;;18.50;10.75;;;-2.60;99.70;;;;;;5105904;28;20040;-84
2023/12/01 08:39:48;;;;;;;20.00;11.50;;;-2.60;99.90;;;;;;5096036;28;20165;-84
2023/12/01 08:42:13;;;;;;;23.10;12.07;;;-2.50;99.90;;;;;;5113097;28;20035;-84
2023/12/01 08:44:39;;;;;;;22.75;12.35;;;-2.50;99.90;;;;;;5091023;28;20079;-82
2023/12/01 08:47:05;;;;;;;17.23;10.63;;;-2.40;99.90;;;;;;5113270;28;20093;-84
2023/12/01 08:49:31;;;;;;;19.52;11.82;;;-2.40;99.80;;;;;;5094804;28;20031;-83
2023/12/01 08:51:57;;;;;;;27.90;13.75;;;-2.40;99.90;;;;;;5094829;28;20034;-83
2023/12/01 08:54:23;;;;;;;22.67;13.25;;;-2.30;99.90;;;;;;5099339;28;20499;-84
2023/12/01 08:56:49;;;;;;;23.52;13.98;;;-2.20;99.90;;;;;;5113047;28;20433;-83
2023/12/01 08:59:17;;;;;;;29.27;14.75;;;-2.20;99.90;;;;;;5110927;28;20032;-83
2023/12/01 09:01:44;;;;;;;23.02;14.50;;;-2.20;99.90;;;;;;5114480;28;20027;-86
2023/12/01 09:04:10;;;;;;;37.00;13.70;;;-2.10;99.90;;;;;;5085875;28;20150;-83
2023/12/01 09:06:38;;;;;;;26.05;13.98;;;-2.00;99.90;;;;;;5094612;28;20091;-84
2023/12/01 09:09:08;;;;;;;22.38;14.60;;;-2.00;99.90;;;;;;5084023;28;20031;-82
2023/12/01 09:11:34;;;;;;;23.73;15.02;;;-1.90;99.90;;;;;;5110750;28;20109;-83
2023/12/01 09:14:00;;;;;;;21.15;11.63;;;-1.90;99.90;;;;;;5104425;28;20154;-84
2023/12/01 09:16:26;;;;;;;21.55;13.80;;;-1.90;99.90;;;;;;5113416;28;20016;-82
2023/12/01 09:18:52;;;;;;;15.60;10.13;;;-2.00;99.60;;;;;;5105855;28;20385;-81
2023/12/01 09:21:18;;;;;;;20.85;11.52;;;-2.00;99.60;;;;;;5089787;28;20024;-83
2023/12/01 09:23:46;;;;;;;20.15;13.52;;;-2.10;99.70;;;;;;5111785;28;20047;-80
2023/12/01 09:26:19;;;;;;;22.00;11.73;;;-2.00;99.80;;;;;;5105226;28;20024;-82
2023/12/01 09:28:47;;;;;;;20.58;11.43;;;-2.00;99.80;;;;;;5084894;28;20527;-82
2023/12/01 09:31:13;;;;;;;20.20;12.18;;;-2.00;99.80;;;;;;5116653;28;20109;-83
2023/12/01 09:33:39;;;;;;;22.02;12.95;;;-2.00;99.60;;;;;;5097409;28;20020;-83
2023/12/01 09:36:05;;;;;;;16.23;12.30;;;-2.00;99.70;;;;;;5109636;28;20077;-83
2023/12/01 09:38:32;;;;;;;20.23;11.75;;;-1.90;99.80;;;;;;5116600;28;20027;-84
2023/12/01 09:40:58;;;;;;;27.65;16.30;;;-1.90;99.60;;;;;;5116876;28;20503;-83
2023/12/01 09:43:24;;;;;;;24.55;13.07;;;-1.80;99.70;;;;;;5093743;28;20118;-83
2023/12/01 09:45:53;;;;;;;21.38;12.85;;;-1.80;99.70;;;;;;5111578;28;20036;-85
2023/12/01 09:48:20;;;;;;;21.85;13.95;;;-1.80;99.60;;;;;;5103451;28;20021;-87
2023/12/01 09:50:46;;;;;;;24.50;14.13;;;-1.70;99.70;;;;;;5103475;28;20530;-83
2023/12/01 09:53:13;;;;;;;26.27;15.07;;;-1.70;99.70;;;;;;5081365;28;20458;-83
2023/12/01 09:55:39;;;;;;;17.35;13.80;;;-1.60;99.70;;;;;;5118182;28;20035;-82
2023/12/01 09:58:04;;;;;;;27.45;15.20;;;-1.50;99.80;;;;;;5119818;28;20427;-82
2023/12/01 10:00:31;;;;;;;26.27;14.25;;;-1.40;99.60;;;;;;5117252;27;20218;-82
2023/12/01 10:02:57;;;;;;;26.20;13.73;;;-1.40;99.20;;;;;;5126972;28;20169;-85
2023/12/01 10:05:26;;;;;;;29.70;17.35;;;-1.50;99.10;;;;;;5110104;28;20118;-85
2023/12/01 10:07:52;;;;;;;26.85;16.48;;;-1.60;99.30;;;;;;5107464;28;20106;-83
2023/12/01 10:10:26;;;;;;;29.58;16.10;;;-1.60;99.40;;;;;;5109311;28;20100;-83
2023/12/01 10:13:07;;;;;;;31.75;19.33;;;-1.60;99.40;;;;;;5111097;28;20031;-83
2023/12/01 10:15:38;;;;;;;25.00;16.35;;;-1.60;99.60;;;;;;5106578;28;20022;-83
2023/12/01 10:18:10;;;;;;;30.25;17.00;;;-1.60;99.50;;;;;;5097744;28;20051;-84
2023/12/01 10:20:39;;;;;;;27.45;15.82;;;-1.60;99.60;;;;;;5117526;28;20067;-84
2023/12/01 10:23:18;;;;;;;29.83;17.77;;;-1.60;99.60;;;;;;5123192;28;20027;-84
2023/12/01 10:25:49;;;;;;;40.40;18.92;;;-1.60;99.70;;;;;;5122307;28;20023;-83
2023/12/01 10:28:22;;;;;;;33.88;17.98;;;-1.50;99.70;;;;;;5102222;28;20045;-81
2023/12/01 10:30:59;;;;;;;28.20;16.88;;;-1.40;99.80;;;;;;5116542;28;20016;-81
2023/12/01 10:33:28;;;;;;;29.42;17.05;;;-1.40;99.60;;;;;;5112089;28;20164;-82
2023/12/01 10:36:01;;;;;;;33.22;19.30;;;-1.50;99.40;;;;;;5115971;28;20015;-84
2023/12/01 10:38:28;;;;;;;23.88;15.90;;;-1.50;99.70;;;;;;5108944;28;20027;-82
2023/12/01 10:40:54;;;;;;;27.33;15.88;;;-1.50;99.50;;;;;;5117481;28;20110;-80
2023/12/01 10:43:21;;;;;;;26.40;16.95;;;-1.50;99.50;;;;;;5113122;28;20496;-82
2023/12/01 10:45:49;;;;;;;26.67;15.65;;;-1.70;99.40;;;;;;5116115;28;20500;-83
2023/12/01 10:48:17;;;;;;;27.35;16.88;;;-1.70;99.80;;;;;;5115728;28;20019;-82
2023/12/01 10:50:44;;;;;;;27.33;17.25;;;-1.50;99.90;;;;;;5096427;28;20020;-82
2023/12/01 10:53:11;;;;;;;33.33;18.25;;;-1.40;99.90;;;;;;5115090;28;20047;-82
2023/12/01 10:55:37;;;;;;;24.88;15.23;;;-1.40;99.40;;;;;;5107001;28;20477;-80
2023/12/01 10:58:08;;;;;;;24.38;15.23;;;-1.40;99.50;;;;;;5115090;28;20110;-80
2023/12/01 11:00:34;;;;;;;33.17;18.25;;;-1.50;99.40;;;;;;5096760;28;20039;-81
2023/12/01 11:03:04;;;;;;;24.33;14.25;;;-1.60;99.40;;;;;;5111761;28;20026;-82
2023/12/01 11:05:32;;;;;;;25.85;13.93;;;-1.60;99.70;;;;;;5114882;28;20472;-81
2023/12/01 11:08:06;;;;;;;26.67;14.18;;;-1.70;99.70;;;;;;5097208;28;20048;-82
2023/12/01 11:10:41;;;;;;;24.92;13.93;;;-1.70;99.70;;;;;;5100746;28;20055;-83
2023/12/01 11:13:56;;;;;;;26.50;14.65;;;-1.90;99.60;;;;;;5115054;28;20034;-80
2023/12/01 11:16:22;;;;;;;28.63;16.85;;;-1.90;99.90;;;;;;5109948;28;20465;-80
2023/12/01 11:18:49;;;;;;;26.30;16.42;;;-1.90;99.90;;;;;;5108301;28;20027;-82
2023/12/01 11:21:52;;;;;;;25.67;16.38;;;-1.90;99.90;;;;;;5116054;28;20031;-82
2023/12/01 11:24:36;;;;;;;31.25;17.90;;;-1.70;99.90;;;;;;5106941;28;20119;-82
2023/12/01 11:27:03;;;;;;;35.70;18.52;;;-1.60;99.90;;;;;;5114037;28;20050;-81
2023/12/01 11:29:32;;;;;;;31.92;18.58;;;-1.50;99.90;;;;;;5114986;28;20020;-81
2023/12/01 11:31:58;;;;;;;32.67;17.05;;;-1.40;99.90;;;;;;5103072;28;20051;-81
2023/12/01 11:34:27;;;;;;;34.55;19.63;;;-1.30;99.90;;;;;;5116684;28;20020;-83
2023/12/01 11:36:53;;;;;;;29.90;16.58;;;-1.30;99.90;;;;;;5115967;28;20019;-80
2023/12/01 11:39:27;;;;;;;33.80;19.17;;;-1.20;99.90;;;;;;5112467;28;20030;-82
2023/12/01 11:42:01;;;;;;;36.38;21.20;;;-1.30;99.90;;;;;;5114754;28;20030;-83
2023/12/01 11:44:37;;;;;;;35.35;19.75;;;-1.30;99.90;;;;;;5113131;28;20488;-82
2023/12/01 11:47:05;;;;;;;34.13;18.88;;;-1.30;99.90;;;;;;5111794;28;20016;-83
2023/12/01 11:49:33;;;;;;;30.55;19.67;;;-1.30;99.90;;;;;;5113925;28;20034;-83
2023/12/01 11:52:01;;;;;;;31.50;18.23;;;-1.40;99.90;;;;;;5114174;28;20094;-81
2023/12/01 11:54:36;;;;;;;30.33;16.85;;;-1.50;99.90;;;;;;5113463;28;20019;-84
2023/12/01 11:57:08;;;;;;;;;;;-1.50;99.90;;;;;;5113446;28;20466;-84
2023/12/01 11:59:35;;;;;;;23.27;14.82;;;-1.50;99.90;;;;;;5103002;28;19965;-85
2023/12/01 12:02:02;;;;;;;26.77;15.90;;;-1.50;99.90;;;;;;5095830;28;20019;-84
2023/12/01 12:04:28;;;;;;;28.55;16.25;;;-1.50;99.90;;;;;;5114703;28;20016;-83
2023/12/01 12:06:57;;;;;;;31.13;18.20;;;-1.50;99.90;;;;;;5116135;28;20489;-85
2023/12/01 12:09:23;;;;;;;28.55;18.98;;;-1.60;99.90;;;;;;5116516;28;20439;-84
2023/12/01 12:11:53;;;;;;;28.95;17.00;;;-1.60;99.90;;;;;;5096147;28;20020;-85
2023/12/01 12:14:28;;;;;;;32.25;18.45;;;-1.60;99.90;;;;;;5114008;28;20015;-87
2023/12/01 12:16:54;;;;;;;32.50;17.80;;;-1.60;99.90;;;;;;5094393;28;20043;-85
2023/12/01 12:19:20;;;;;;;30.98;19.15;;;-1.60;99.90;;;;;;5114622;28;20215;-90
2023/12/01 12:21:48;;;;;;;29.67;17.95;;;-1.60;99.90;;;;;;5110079;28;20045;-91
2023/12/01 12:24:15;;;;;;;31.30;20.33;;;-1.60;99.90;;;;;;5102705;28;20496;-85
2023/12/01 12:26:42;;;;;;;31.67;19.45;;;-1.60;99.90;;;;;;5115854;28;20039;-90
2023/12/01 12:29:08;;;;;;;28.83;17.25;;;-1.60;99.90;;;;;;5097484;28;20071;-81
2023/12/01 12:31:38;;;;;;;29.90;18.08;;;-1.60;99.90;;;;;;5113950;28;20023;-83
2023/12/01 12:34:08;;;;;;;29.55;19.17;;;-1.60;99.90;;;;;;5116641;28;20062;-83
2023/12/01 12:36:38;;;;;;;36.47;19.77;;;-1.50;99.90;;;;;;5115745;28;20024;-83
2023/12/01 12:39:13;;;;;;;31.85;21.63;;;-1.60;99.90;;;;;;5102669;28;20019;-85